sensor_id;sensor_type;location;lat;lon;timestamp;P1;durP1;ratioP1;P2;durP2;ratioP2
72586;SDS011;60621;49.576;11.024;2022-10-16T00:00:37;4.63;;;1.63;;
72586;SDS011;60621;49.576;11.024;2022-10-16T00:01:39;5.30;;;1.50;;
72586;SDS011;60621;49.576;11.024;2022-10-16T00:02:41;3.42;;;1.40;;
72586;SDS011;60621;49.576;11.024;2022-10-16T00:03:43;4.78;;;1.55;;
72586;SDS011;60621;49.576;11.024;2022-10-16T00:05:47;4.85;;;1.60;;
72586;SDS011;60621;49.576;11.024;2022-10-16T00:06:48;3.97;;;1.48;;
72586;SDS011;60621;49.576;11.024;2022-10-16T00:07:50;4.10;;;1.50;;
72586;SDS011;60621;49.576;11.024;2022-10-16T00:08:52;4.15;;;1.70;;
72586;SDS011;60621;49.576;11.024;2022-10-16T00:09:53;4.10;;;1.50;;
72586;SDS011;60621;49.576;11.024;2022-10-16T00:11:02;5.97;;;1.70;;
72586;SDS011;60621;49.576;11.024;2022-10-16T00:12:06;5.63;;;1.50;;
72586;SDS011;60621;49.576;11.024;2022-10-16T00:13:08;4.85;;;1.48;;
72586;SDS011;60621;49.576;11.024;2022-10-16T00:14:11;4.03;;;1.40;;
72586;SDS011;60621;49.576;11.024;2022-10-16T00:15:15;5.05;;;1.60;;
72586;SDS011;60621;49.576;11.024;2022-10-16T00:16:17;3.75;;;1.58;;
72586;SDS011;60621;49.576;11.024;2022-10-16T00:17:19;4.97;;;1.50;;
72586;SDS011;60621;49.576;11.024;2022-10-16T00:18:20;5.30;;;1.60;;
72586;SDS011;60621;49.576;11.024;2022-10-16T00:19:22;3.95;;;1.55;;
72586;SDS011;60621;49.576;11.024;2022-10-16T00:20:24;3.67;;;1.50;;
72586;SDS011;60621;49.576;11.024;2022-10-16T00:21:27;5.03;;;1.40;;
72586;SDS011;60621;49.576;11.024;2022-10-16T00:22:29;3.63;;;1.40;;
72586;SDS011;60621;49.576;11.024;2022-10-16T00:23:31;4.00;;;1.58;;
72586;SDS011;60621;49.576;11.024;2022-10-16T00:24:33;4.75;;;1.50;;
72586;SDS011;60621;49.576;11.024;2022-10-16T00:25:35;4.65;;;1.60;;
72586;SDS011;60621;49.576;11.024;2022-10-16T00:26:37;4.10;;;1.50;;
72586;SDS011;60621;49.576;11.024;2022-10-16T00:27:40;4.28;;;1.67;;
72586;SDS011;60621;49.576;11.024;2022-10-16T00:28:41;3.42;;;1.40;;
72586;SDS011;60621;49.576;11.024;2022-10-16T00:29:43;4.57;;;1.60;;
72586;SDS011;60621;49.576;11.024;2022-10-16T00:30:44;3.70;;;1.63;;
72586;SDS011;60621;49.576;11.024;2022-10-16T00:31:46;3.65;;;1.50;;
72586;SDS011;60621;49.576;11.024;2022-10-16T00:32:47;5.10;;;1.80;;
72586;SDS011;60621;49.576;11.024;2022-10-16T00:33:49;3.60;;;1.40;;
72586;SDS011;60621;49.576;11.024;2022-10-16T00:34:51;4.35;;;1.42;;
72586;SDS011;60621;49.576;11.024;2022-10-16T00:35:57;5.68;;;1.80;;
72586;SDS011;60621;49.576;11.024;2022-10-16T00:36:59;4.05;;;1.48;;
72586;SDS011;60621;49.576;11.024;2022-10-16T00:38:00;3.78;;;1.58;;
72586;SDS011;60621;49.576;11.024;2022-10-16T00:39:02;3.45;;;1.50;;
72586;SDS011;60621;49.576;11.024;2022-10-16T00:40:04;4.18;;;1.50;;
72586;SDS011;60621;49.576;11.024;2022-10-16T00:41:06;3.60;;;1.63;;
72586;SDS011;60621;49.576;11.024;2022-10-16T00:42:14;4.47;;;1.67;;
72586;SDS011;60621;49.576;11.024;2022-10-16T00:44:50;3.90;;;1.63;;
72586;SDS011;60621;49.576;11.024;2022-10-16T00:45:58;5.97;;;1.65;;
72586;SDS011;60621;49.576;11.024;2022-10-16T00:46:59;6.78;;;1.70;;
72586;SDS011;60621;49.576;11.024;2022-10-16T00:48:01;3.65;;;1.45;;
72586;SDS011;60621;49.576;11.024;2022-10-16T00:50:26;3.10;;;1.30;;
72586;SDS011;60621;49.576;11.024;2022-10-16T00:51:40;4.00;;;1.50;;
72586;SDS011;60621;49.576;11.024;2022-10-16T00:52:53;5.68;;;1.60;;
72586;SDS011;60621;49.576;11.024;2022-10-16T00:54:58;4.72;;;1.70;;
72586;SDS011;60621;49.576;11.024;2022-10-16T00:55:59;5.45;;;1.50;;
72586;SDS011;60621;49.576;11.024;2022-10-16T00:57:03;4.05;;;1.60;;
72586;SDS011;60621;49.576;11.024;2022-10-16T00:58:06;5.25;;;1.65;;
72586;SDS011;60621;49.576;11.024;2022-10-16T00:59:11;3.85;;;1.55;;
72586;SDS011;60621;49.576;11.024;2022-10-16T01:00:21;4.40;;;1.60;;
72586;SDS011;60621;49.576;11.024;2022-10-16T01:01:23;4.75;;;1.50;;
72586;SDS011;60621;49.576;11.024;2022-10-16T01:02:25;6.50;;;1.77;;
72586;SDS011;60621;49.576;11.024;2022-10-16T01:03:31;3.58;;;1.45;;
72586;SDS011;60621;49.576;11.024;2022-10-16T01:04:36;4.15;;;1.55;;
72586;SDS011;60621;49.576;11.024;2022-10-16T01:05:42;4.00;;;1.80;;
72586;SDS011;60621;49.576;11.024;2022-10-16T01:07:10;6.43;;;1.60;;
72586;SDS011;60621;49.576;11.024;2022-10-16T01:08:29;3.80;;;1.63;;
72586;SDS011;60621;49.576;11.024;2022-10-16T01:11:17;5.18;;;1.60;;
72586;SDS011;60621;49.576;11.024;2022-10-16T01:12:43;4.63;;;1.60;;
72586;SDS011;60621;49.576;11.024;2022-10-16T01:14:21;6.93;;;1.90;;
72586;SDS011;60621;49.576;11.024;2022-10-16T01:16:45;3.75;;;1.55;;
72586;SDS011;60621;49.576;11.024;2022-10-16T01:19:26;4.60;;;1.83;;
72586;SDS011;60621;49.576;11.024;2022-10-16T01:21:53;4.82;;;1.50;;
72586;SDS011;60621;49.576;11.024;2022-10-16T01:25:43;4.28;;;1.80;;
72586;SDS011;60621;49.576;11.024;2022-10-16T01:28:14;3.70;;;1.55;;
72586;SDS011;60621;49.576;11.024;2022-10-16T01:29:27;6.85;;;1.80;;
72586;SDS011;60621;49.576;11.024;2022-10-16T01:30:32;4.38;;;1.60;;
72586;SDS011;60621;49.576;11.024;2022-10-16T01:31:37;6.03;;;1.80;;
72586;SDS011;60621;49.576;11.024;2022-10-16T01:32:44;5.10;;;1.65;;
72586;SDS011;60621;49.576;11.024;2022-10-16T01:33:51;6.38;;;1.77;;
72586;SDS011;60621;49.576;11.024;2022-10-16T01:36:26;5.72;;;1.90;;
72586;SDS011;60621;49.576;11.024;2022-10-16T01:37:39;4.35;;;1.80;;
72586;SDS011;60621;49.576;11.024;2022-10-16T01:38:48;4.85;;;1.60;;
72586;SDS011;60621;49.576;11.024;2022-10-16T01:39:54;6.05;;;2.00;;
72586;SDS011;60621;49.576;11.024;2022-10-16T01:42:24;3.67;;;1.70;;
72586;SDS011;60621;49.576;11.024;2022-10-16T01:43:33;4.63;;;1.60;;
72586;SDS011;60621;49.576;11.024;2022-10-16T01:44:39;5.28;;;1.75;;
72586;SDS011;60621;49.576;11.024;2022-10-16T01:45:44;6.63;;;1.80;;
72586;SDS011;60621;49.576;11.024;2022-10-16T01:46:47;5.97;;;1.70;;
72586;SDS011;60621;49.576;11.024;2022-10-16T01:47:51;7.53;;;2.20;;
72586;SDS011;60621;49.576;11.024;2022-10-16T01:48:54;9.25;;;2.33;;
72586;SDS011;60621;49.576;11.024;2022-10-16T01:49:56;5.65;;;2.20;;
72586;SDS011;60621;49.576;11.024;2022-10-16T01:51:04;4.43;;;1.70;;
72586;SDS011;60621;49.576;11.024;2022-10-16T01:52:11;6.90;;;1.80;;
72586;SDS011;60621;49.576;11.024;2022-10-16T01:53:16;4.95;;;1.77;;
72586;SDS011;60621;49.576;11.024;2022-10-16T01:54:18;4.63;;;1.60;;
72586;SDS011;60621;49.576;11.024;2022-10-16T01:55:24;4.45;;;1.65;;
72586;SDS011;60621;49.576;11.024;2022-10-16T01:56:30;3.67;;;1.60;;
72586;SDS011;60621;49.576;11.024;2022-10-16T01:57:32;5.90;;;1.60;;
72586;SDS011;60621;49.576;11.024;2022-10-16T01:58:40;4.60;;;1.88;;
72586;SDS011;60621;49.576;11.024;2022-10-16T01:59:46;4.88;;;1.70;;
72586;SDS011;60621;49.576;11.024;2022-10-16T02:00:52;4.07;;;1.75;;
72586;SDS011;60621;49.576;11.024;2022-10-16T02:01:56;4.10;;;1.70;;
72586;SDS011;60621;49.576;11.024;2022-10-16T02:03:01;4.30;;;1.70;;
72586;SDS011;60621;49.576;11.024;2022-10-16T02:04:15;5.10;;;2.08;;
72586;SDS011;60621;49.576;11.024;2022-10-16T02:05:24;6.15;;;1.83;;
72586;SDS011;60621;49.576;11.024;2022-10-16T02:06:29;3.67;;;1.75;;
72586;SDS011;60621;49.576;11.024;2022-10-16T02:07:31;6.45;;;1.85;;
72586;SDS011;60621;49.576;11.024;2022-10-16T02:08:34;4.82;;;1.90;;
72586;SDS011;60621;49.576;11.024;2022-10-16T02:09:36;5.45;;;1.90;;
72586;SDS011;60621;49.576;11.024;2022-10-16T02:10:39;4.78;;;1.88;;
72586;SDS011;60621;49.576;11.024;2022-10-16T02:11:41;4.25;;;1.70;;
72586;SDS011;60621;49.576;11.024;2022-10-16T02:12:44;5.38;;;1.73;;
72586;SDS011;60621;49.576;11.024;2022-10-16T02:13:53;4.07;;;1.50;;
72586;SDS011;60621;49.576;11.024;2022-10-16T02:14:59;4.10;;;1.90;;
72586;SDS011;60621;49.576;11.024;2022-10-16T02:16:01;4.47;;;1.73;;
72586;SDS011;60621;49.576;11.024;2022-10-16T02:17:09;4.30;;;1.70;;
72586;SDS011;60621;49.576;11.024;2022-10-16T02:18:15;4.00;;;1.60;;
72586;SDS011;60621;49.576;11.024;2022-10-16T02:19:17;4.80;;;1.60;;
72586;SDS011;60621;49.576;11.024;2022-10-16T02:20:22;5.15;;;1.77;;
72586;SDS011;60621;49.576;11.024;2022-10-16T02:21:29;5.05;;;1.50;;
72586;SDS011;60621;49.576;11.024;2022-10-16T02:22:38;6.30;;;1.70;;
72586;SDS011;60621;49.576;11.024;2022-10-16T02:25:24;4.18;;;1.90;;
72586;SDS011;60621;49.576;11.024;2022-10-16T02:28:13;4.57;;;1.67;;
72586;SDS011;60621;49.576;11.024;2022-10-16T02:29:22;5.03;;;1.65;;
72586;SDS011;60621;49.576;11.024;2022-10-16T02:31:37;4.30;;;1.70;;
72586;SDS011;60621;49.576;11.024;2022-10-16T02:32:43;5.63;;;1.90;;
72586;SDS011;60621;49.576;11.024;2022-10-16T02:33:47;4.47;;;1.60;;
72586;SDS011;60621;49.576;11.024;2022-10-16T02:34:49;4.32;;;1.83;;
72586;SDS011;60621;49.576;11.024;2022-10-16T02:35:52;5.00;;;1.60;;
72586;SDS011;60621;49.576;11.024;2022-10-16T02:36:55;4.20;;;1.58;;
72586;SDS011;60621;49.576;11.024;2022-10-16T02:37:59;3.67;;;1.60;;
72586;SDS011;60621;49.576;11.024;2022-10-16T02:39:02;4.47;;;1.80;;
72586;SDS011;60621;49.576;11.024;2022-10-16T02:40:05;4.15;;;1.60;;
72586;SDS011;60621;49.576;11.024;2022-10-16T02:41:08;5.15;;;1.67;;
72586;SDS011;60621;49.576;11.024;2022-10-16T02:43:14;6.03;;;2.08;;
72586;SDS011;60621;49.576;11.024;2022-10-16T02:44:16;6.25;;;2.13;;
72586;SDS011;60621;49.576;11.024;2022-10-16T02:45:18;5.43;;;1.80;;
72586;SDS011;60621;49.576;11.024;2022-10-16T02:46:20;4.88;;;1.77;;
72586;SDS011;60621;49.576;11.024;2022-10-16T02:47:22;4.38;;;1.70;;
72586;SDS011;60621;49.576;11.024;2022-10-16T02:48:23;5.32;;;1.80;;
72586;SDS011;60621;49.576;11.024;2022-10-16T02:49:25;3.80;;;1.70;;
72586;SDS011;60621;49.576;11.024;2022-10-16T02:50:26;4.03;;;1.70;;
72586;SDS011;60621;49.576;11.024;2022-10-16T02:51:28;6.43;;;1.88;;
72586;SDS011;60621;49.576;11.024;2022-10-16T02:52:29;3.83;;;1.60;;
72586;SDS011;60621;49.576;11.024;2022-10-16T02:53:31;6.63;;;1.98;;
72586;SDS011;60621;49.576;11.024;2022-10-16T02:54:32;7.40;;;1.90;;
72586;SDS011;60621;49.576;11.024;2022-10-16T02:55:34;5.15;;;1.67;;
72586;SDS011;60621;49.576;11.024;2022-10-16T02:56:35;4.68;;;1.90;;
72586;SDS011;60621;49.576;11.024;2022-10-16T02:57:37;4.75;;;1.60;;
72586;SDS011;60621;49.576;11.024;2022-10-16T02:58:39;4.25;;;1.60;;
72586;SDS011;60621;49.576;11.024;2022-10-16T02:59:41;7.32;;;2.00;;
72586;SDS011;60621;49.576;11.024;2022-10-16T03:00:43;4.22;;;1.75;;
72586;SDS011;60621;49.576;11.024;2022-10-16T03:01:44;5.15;;;1.75;;
72586;SDS011;60621;49.576;11.024;2022-10-16T03:02:46;3.50;;;1.63;;
72586;SDS011;60621;49.576;11.024;2022-10-16T03:03:48;3.63;;;1.65;;
72586;SDS011;60621;49.576;11.024;2022-10-16T03:04:49;4.97;;;2.03;;
72586;SDS011;60621;49.576;11.024;2022-10-16T03:05:51;4.85;;;1.65;;
72586;SDS011;60621;49.576;11.024;2022-10-16T03:06:52;3.92;;;1.70;;
72586;SDS011;60621;49.576;11.024;2022-10-16T03:07:54;4.88;;;1.70;;
72586;SDS011;60621;49.576;11.024;2022-10-16T03:08:55;4.88;;;1.70;;
72586;SDS011;60621;49.576;11.024;2022-10-16T03:09:57;6.25;;;1.70;;
72586;SDS011;60621;49.576;11.024;2022-10-16T03:11:01;4.80;;;1.50;;
72586;SDS011;60621;49.576;11.024;2022-10-16T03:12:03;6.43;;;1.88;;
72586;SDS011;60621;49.576;11.024;2022-10-16T03:13:04;5.30;;;1.80;;
72586;SDS011;60621;49.576;11.024;2022-10-16T03:14:06;4.97;;;1.77;;
72586;SDS011;60621;49.576;11.024;2022-10-16T03:15:08;4.80;;;1.70;;
72586;SDS011;60621;49.576;11.024;2022-10-16T03:16:10;4.18;;;1.60;;
72586;SDS011;60621;49.576;11.024;2022-10-16T03:17:11;4.38;;;1.77;;
72586;SDS011;60621;49.576;11.024;2022-10-16T03:18:14;4.93;;;1.75;;
72586;SDS011;60621;49.576;11.024;2022-10-16T03:19:16;4.40;;;1.95;;
72586;SDS011;60621;49.576;11.024;2022-10-16T03:20:18;4.60;;;1.45;;
72586;SDS011;60621;49.576;11.024;2022-10-16T03:21:20;6.85;;;1.70;;
72586;SDS011;60621;49.576;11.024;2022-10-16T03:22:21;5.22;;;1.60;;
72586;SDS011;60621;49.576;11.024;2022-10-16T03:23:23;7.00;;;1.80;;
72586;SDS011;60621;49.576;11.024;2022-10-16T03:24:25;4.10;;;1.60;;
72586;SDS011;60621;49.576;11.024;2022-10-16T03:25:26;5.10;;;1.58;;
72586;SDS011;60621;49.576;11.024;2022-10-16T03:26:28;4.78;;;1.70;;
72586;SDS011;60621;49.576;11.024;2022-10-16T03:27:29;4.18;;;1.80;;
72586;SDS011;60621;49.576;11.024;2022-10-16T03:28:31;3.65;;;1.60;;
72586;SDS011;60621;49.576;11.024;2022-10-16T03:29:32;4.13;;;1.85;;
72586;SDS011;60621;49.576;11.024;2022-10-16T03:30:34;5.15;;;1.60;;
72586;SDS011;60621;49.576;11.024;2022-10-16T03:31:35;4.57;;;1.60;;
72586;SDS011;60621;49.576;11.024;2022-10-16T03:32:37;5.80;;;1.70;;
72586;SDS011;60621;49.576;11.024;2022-10-16T03:33:38;5.55;;;1.45;;
72586;SDS011;60621;49.576;11.024;2022-10-16T03:34:40;5.55;;;1.65;;
72586;SDS011;60621;49.576;11.024;2022-10-16T03:35:42;5.70;;;1.73;;
72586;SDS011;60621;49.576;11.024;2022-10-16T03:36:43;6.90;;;1.80;;
72586;SDS011;60621;49.576;11.024;2022-10-16T03:37:45;5.75;;;1.77;;
72586;SDS011;60621;49.576;11.024;2022-10-16T03:38:46;4.90;;;1.50;;
72586;SDS011;60621;49.576;11.024;2022-10-16T03:39:47;4.82;;;1.80;;
72586;SDS011;60621;49.576;11.024;2022-10-16T03:40:49;5.90;;;1.80;;
72586;SDS011;60621;49.576;11.024;2022-10-16T03:41:50;4.75;;;1.60;;
72586;SDS011;60621;49.576;11.024;2022-10-16T03:42:52;3.40;;;1.33;;
72586;SDS011;60621;49.576;11.024;2022-10-16T03:43:56;5.47;;;1.67;;
72586;SDS011;60621;49.576;11.024;2022-10-16T03:44:57;3.88;;;1.58;;
72586;SDS011;60621;49.576;11.024;2022-10-16T03:45:59;4.47;;;1.85;;
72586;SDS011;60621;49.576;11.024;2022-10-16T03:47:00;5.63;;;1.85;;
72586;SDS011;60621;49.576;11.024;2022-10-16T03:48:02;4.05;;;1.50;;
72586;SDS011;60621;49.576;11.024;2022-10-16T03:49:04;4.32;;;1.80;;
72586;SDS011;60621;49.576;11.024;2022-10-16T03:50:09;3.70;;;1.58;;
72586;SDS011;60621;49.576;11.024;2022-10-16T03:51:11;3.55;;;1.48;;
72586;SDS011;60621;49.576;11.024;2022-10-16T03:52:13;6.75;;;1.63;;
72586;SDS011;60621;49.576;11.024;2022-10-16T03:53:14;4.75;;;1.48;;
72586;SDS011;60621;49.576;11.024;2022-10-16T03:54:16;3.97;;;1.52;;
72586;SDS011;60621;49.576;11.024;2022-10-16T03:55:18;7.50;;;1.90;;
72586;SDS011;60621;49.576;11.024;2022-10-16T03:56:19;4.80;;;1.80;;
72586;SDS011;60621;49.576;11.024;2022-10-16T03:57:21;3.80;;;1.73;;
72586;SDS011;60621;49.576;11.024;2022-10-16T03:58:22;6.22;;;1.58;;
72586;SDS011;60621;49.576;11.024;2022-10-16T03:59:24;4.20;;;1.60;;
72586;SDS011;60621;49.576;11.024;2022-10-16T04:00:26;4.78;;;1.50;;
72586;SDS011;60621;49.576;11.024;2022-10-16T04:01:28;3.72;;;1.55;;
72586;SDS011;60621;49.576;11.024;2022-10-16T04:02:29;4.35;;;1.48;;
72586;SDS011;60621;49.576;11.024;2022-10-16T04:03:31;3.30;;;1.60;;
72586;SDS011;60621;49.576;11.024;2022-10-16T04:04:32;3.90;;;1.70;;
72586;SDS011;60621;49.576;11.024;2022-10-16T04:05:34;5.38;;;1.65;;
72586;SDS011;60621;49.576;11.024;2022-10-16T04:06:36;5.25;;;1.60;;
72586;SDS011;60621;49.576;11.024;2022-10-16T04:07:37;4.43;;;1.50;;
72586;SDS011;60621;49.576;11.024;2022-10-16T04:08:39;4.78;;;1.50;;
72586;SDS011;60621;49.576;11.024;2022-10-16T04:09:40;4.85;;;1.60;;
72586;SDS011;60621;49.576;11.024;2022-10-16T04:10:42;4.97;;;1.58;;
72586;SDS011;60621;49.576;11.024;2022-10-16T04:11:44;5.45;;;1.60;;
72586;SDS011;60621;49.576;11.024;2022-10-16T04:12:46;4.32;;;1.50;;
72586;SDS011;60621;49.576;11.024;2022-10-16T04:13:47;4.78;;;1.58;;
72586;SDS011;60621;49.576;11.024;2022-10-16T04:14:49;5.13;;;1.58;;
72586;SDS011;60621;49.576;11.024;2022-10-16T04:15:51;6.70;;;1.60;;
72586;SDS011;60621;49.576;11.024;2022-10-16T04:16:52;3.88;;;1.70;;
72586;SDS011;60621;49.576;11.024;2022-10-16T04:17:53;4.53;;;1.50;;
72586;SDS011;60621;49.576;11.024;2022-10-16T04:18:55;4.53;;;1.60;;
72586;SDS011;60621;49.576;11.024;2022-10-16T04:19:56;3.72;;;1.50;;
72586;SDS011;60621;49.576;11.024;2022-10-16T04:21:05;3.90;;;1.52;;
72586;SDS011;60621;49.576;11.024;2022-10-16T04:22:07;4.13;;;1.60;;
72586;SDS011;60621;49.576;11.024;2022-10-16T04:23:08;4.03;;;1.50;;
72586;SDS011;60621;49.576;11.024;2022-10-16T04:24:10;5.07;;;1.45;;
72586;SDS011;60621;49.576;11.024;2022-10-16T04:25:12;4.30;;;1.60;;
72586;SDS011;60621;49.576;11.024;2022-10-16T04:26:14;5.05;;;1.60;;
72586;SDS011;60621;49.576;11.024;2022-10-16T04:27:15;6.78;;;1.60;;
72586;SDS011;60621;49.576;11.024;2022-10-16T04:28:17;6.07;;;1.92;;
72586;SDS011;60621;49.576;11.024;2022-10-16T04:29:19;3.90;;;1.40;;
72586;SDS011;60621;49.576;11.024;2022-10-16T04:30:21;4.88;;;1.52;;
72586;SDS011;60621;49.576;11.024;2022-10-16T04:31:23;7.55;;;1.70;;
72586;SDS011;60621;49.576;11.024;2022-10-16T04:32:25;4.05;;;1.65;;
72586;SDS011;60621;49.576;11.024;2022-10-16T04:33:27;5.05;;;1.60;;
72586;SDS011;60621;49.576;11.024;2022-10-16T04:34:28;4.15;;;1.70;;
72586;SDS011;60621;49.576;11.024;2022-10-16T04:35:30;5.70;;;1.60;;
72586;SDS011;60621;49.576;11.024;2022-10-16T04:36:32;4.85;;;1.70;;
72586;SDS011;60621;49.576;11.024;2022-10-16T04:37:33;5.43;;;1.80;;
72586;SDS011;60621;49.576;11.024;2022-10-16T04:38:35;5.28;;;1.92;;
72586;SDS011;60621;49.576;11.024;2022-10-16T04:39:38;4.28;;;1.67;;
72586;SDS011;60621;49.576;11.024;2022-10-16T04:40:41;4.13;;;1.70;;
72586;SDS011;60621;49.576;11.024;2022-10-16T04:41:43;5.85;;;1.83;;
72586;SDS011;60621;49.576;11.024;2022-10-16T04:42:45;3.50;;;1.50;;
72586;SDS011;60621;49.576;11.024;2022-10-16T04:43:46;4.97;;;1.60;;
72586;SDS011;60621;49.576;11.024;2022-10-16T04:44:48;3.65;;;1.50;;
72586;SDS011;60621;49.576;11.024;2022-10-16T04:45:49;4.30;;;1.58;;
72586;SDS011;60621;49.576;11.024;2022-10-16T04:46:52;3.50;;;1.50;;
72586;SDS011;60621;49.576;11.024;2022-10-16T04:47:56;5.05;;;1.63;;
72586;SDS011;60621;49.576;11.024;2022-10-16T04:48:58;4.18;;;1.45;;
72586;SDS011;60621;49.576;11.024;2022-10-16T04:49:59;4.13;;;1.45;;
72586;SDS011;60621;49.576;11.024;2022-10-16T04:51:03;4.65;;;1.45;;
72586;SDS011;60621;49.576;11.024;2022-10-16T04:52:05;4.00;;;1.58;;
72586;SDS011;60621;49.576;11.024;2022-10-16T04:53:06;5.10;;;1.65;;
72586;SDS011;60621;49.576;11.024;2022-10-16T04:54:08;5.97;;;1.60;;
72586;SDS011;60621;49.576;11.024;2022-10-16T04:55:10;4.55;;;1.60;;
72586;SDS011;60621;49.576;11.024;2022-10-16T04:56:12;4.25;;;1.70;;
72586;SDS011;60621;49.576;11.024;2022-10-16T04:57:14;5.05;;;1.75;;
72586;SDS011;60621;49.576;11.024;2022-10-16T04:58:15;5.45;;;1.73;;
72586;SDS011;60621;49.576;11.024;2022-10-16T04:59:17;3.47;;;1.50;;
72586;SDS011;60621;49.576;11.024;2022-10-16T05:01:21;6.30;;;2.05;;
72586;SDS011;60621;49.576;11.024;2022-10-16T05:02:23;3.85;;;1.42;;
72586;SDS011;60621;49.576;11.024;2022-10-16T05:03:24;3.90;;;1.33;;
72586;SDS011;60621;49.576;11.024;2022-10-16T05:04:26;4.55;;;1.50;;
72586;SDS011;60621;49.576;11.024;2022-10-16T05:05:27;4.00;;;1.75;;
72586;SDS011;60621;49.576;11.024;2022-10-16T05:06:30;4.78;;;1.60;;
72586;SDS011;60621;49.576;11.024;2022-10-16T05:07:32;3.92;;;1.60;;
72586;SDS011;60621;49.576;11.024;2022-10-16T05:08:34;3.50;;;1.50;;
72586;SDS011;60621;49.576;11.024;2022-10-16T05:09:35;3.35;;;1.40;;
72586;SDS011;60621;49.576;11.024;2022-10-16T05:10:37;3.88;;;1.67;;
72586;SDS011;60621;49.576;11.024;2022-10-16T05:11:39;3.60;;;1.60;;
72586;SDS011;60621;49.576;11.024;2022-10-16T05:12:43;4.55;;;1.60;;
72586;SDS011;60621;49.576;11.024;2022-10-16T05:13:44;4.20;;;1.45;;
72586;SDS011;60621;49.576;11.024;2022-10-16T05:14:46;3.60;;;1.63;;
72586;SDS011;60621;49.576;11.024;2022-10-16T05:15:48;4.55;;;1.50;;
72586;SDS011;60621;49.576;11.024;2022-10-16T05:16:49;3.72;;;1.63;;
72586;SDS011;60621;49.576;11.024;2022-10-16T05:17:52;5.63;;;1.73;;
72586;SDS011;60621;49.576;11.024;2022-10-16T05:18:54;5.15;;;1.60;;
72586;SDS011;60621;49.576;11.024;2022-10-16T05:20:16;3.60;;;1.50;;
72586;SDS011;60621;49.576;11.024;2022-10-16T05:21:18;3.67;;;1.60;;
72586;SDS011;60621;49.576;11.024;2022-10-16T05:22:19;5.38;;;1.80;;
72586;SDS011;60621;49.576;11.024;2022-10-16T05:23:21;6.90;;;1.60;;
72586;SDS011;60621;49.576;11.024;2022-10-16T05:24:22;3.20;;;1.25;;
72586;SDS011;60621;49.576;11.024;2022-10-16T05:25:24;5.35;;;1.60;;
72586;SDS011;60621;49.576;11.024;2022-10-16T05:26:26;4.18;;;1.33;;
72586;SDS011;60621;49.576;11.024;2022-10-16T05:27:27;4.80;;;1.67;;
72586;SDS011;60621;49.576;11.024;2022-10-16T05:28:29;3.40;;;1.50;;
72586;SDS011;60621;49.576;11.024;2022-10-16T05:29:31;3.65;;;1.40;;
72586;SDS011;60621;49.576;11.024;2022-10-16T05:30:33;4.05;;;1.60;;
72586;SDS011;60621;49.576;11.024;2022-10-16T05:31:34;3.42;;;1.50;;
72586;SDS011;60621;49.576;11.024;2022-10-16T05:32:36;4.55;;;1.70;;
72586;SDS011;60621;49.576;11.024;2022-10-16T05:33:37;4.10;;;1.60;;
72586;SDS011;60621;49.576;11.024;2022-10-16T05:34:39;4.57;;;2.30;;
72586;SDS011;60621;49.576;11.024;2022-10-16T05:35:41;6.38;;;2.58;;
72586;SDS011;60621;49.576;11.024;2022-10-16T05:36:42;6.95;;;2.70;;
72586;SDS011;60621;49.576;11.024;2022-10-16T05:37:46;7.93;;;4.18;;
72586;SDS011;60621;49.576;11.024;2022-10-16T05:38:50;5.57;;;2.50;;
72586;SDS011;60621;49.576;11.024;2022-10-16T05:39:51;6.22;;;2.80;;
72586;SDS011;60621;49.576;11.024;2022-10-16T05:40:53;5.60;;;2.35;;
72586;SDS011;60621;49.576;11.024;2022-10-16T05:41:55;4.47;;;2.03;;
72586;SDS011;60621;49.576;11.024;2022-10-16T05:42:56;4.22;;;1.60;;
72586;SDS011;60621;49.576;11.024;2022-10-16T05:43:58;3.97;;;1.70;;
72586;SDS011;60621;49.576;11.024;2022-10-16T05:44:59;3.60;;;1.60;;
72586;SDS011;60621;49.576;11.024;2022-10-16T05:46:04;4.20;;;1.70;;
72586;SDS011;60621;49.576;11.024;2022-10-16T05:47:06;4.32;;;1.60;;
72586;SDS011;60621;49.576;11.024;2022-10-16T05:48:08;5.40;;;1.40;;
72586;SDS011;60621;49.576;11.024;2022-10-16T05:49:09;3.95;;;1.50;;
72586;SDS011;60621;49.576;11.024;2022-10-16T05:50:11;3.40;;;1.50;;
72586;SDS011;60621;49.576;11.024;2022-10-16T05:51:13;4.13;;;1.55;;
72586;SDS011;60621;49.576;11.024;2022-10-16T05:53:17;4.18;;;1.70;;
72586;SDS011;60621;49.576;11.024;2022-10-16T05:54:18;5.03;;;1.67;;
72586;SDS011;60621;49.576;11.024;2022-10-16T05:55:20;3.97;;;1.50;;
72586;SDS011;60621;49.576;11.024;2022-10-16T05:56:21;4.55;;;1.40;;
72586;SDS011;60621;49.576;11.024;2022-10-16T05:57:23;5.55;;;1.73;;
72586;SDS011;60621;49.576;11.024;2022-10-16T05:58:25;4.85;;;1.50;;
72586;SDS011;60621;49.576;11.024;2022-10-16T05:59:30;4.30;;;1.80;;
72586;SDS011;60621;49.576;11.024;2022-10-16T06:00:32;4.43;;;1.73;;
72586;SDS011;60621;49.576;11.024;2022-10-16T06:01:33;4.18;;;1.60;;
72586;SDS011;60621;49.576;11.024;2022-10-16T06:02:36;3.08;;;1.27;;
72586;SDS011;60621;49.576;11.024;2022-10-16T06:03:37;3.53;;;1.45;;
72586;SDS011;60621;49.576;11.024;2022-10-16T06:04:39;5.65;;;1.77;;
72586;SDS011;60621;49.576;11.024;2022-10-16T06:05:41;4.93;;;1.70;;
72586;SDS011;60621;49.576;11.024;2022-10-16T06:06:43;4.75;;;1.80;;
72586;SDS011;60621;49.576;11.024;2022-10-16T06:07:45;3.45;;;1.40;;
72586;SDS011;60621;49.576;11.024;2022-10-16T06:08:47;3.75;;;1.58;;
72586;SDS011;60621;49.576;11.024;2022-10-16T06:09:50;4.95;;;1.40;;
72586;SDS011;60621;49.576;11.024;2022-10-16T06:12:03;4.35;;;1.70;;
72586;SDS011;60621;49.576;11.024;2022-10-16T06:13:05;5.47;;;1.65;;
72586;SDS011;60621;49.576;11.024;2022-10-16T06:14:07;5.45;;;1.83;;
72586;SDS011;60621;49.576;11.024;2022-10-16T06:15:09;4.15;;;1.70;;
72586;SDS011;60621;49.576;11.024;2022-10-16T06:16:11;4.85;;;1.90;;
72586;SDS011;60621;49.576;11.024;2022-10-16T06:17:14;6.68;;;3.75;;
72586;SDS011;60621;49.576;11.024;2022-10-16T06:18:15;8.40;;;4.35;;
72586;SDS011;60621;49.576;11.024;2022-10-16T06:19:17;7.53;;;3.92;;
72586;SDS011;60621;49.576;11.024;2022-10-16T06:20:19;7.30;;;2.50;;
72586;SDS011;60621;49.576;11.024;2022-10-16T06:21:22;5.90;;;1.83;;
72586;SDS011;60621;49.576;11.024;2022-10-16T06:22:28;5.78;;;1.70;;
72586;SDS011;60621;49.576;11.024;2022-10-16T06:23:29;5.28;;;1.65;;
72586;SDS011;60621;49.576;11.024;2022-10-16T06:24:31;3.78;;;1.60;;
72586;SDS011;60621;49.576;11.024;2022-10-16T06:25:32;3.65;;;1.50;;
72586;SDS011;60621;49.576;11.024;2022-10-16T06:26:34;4.55;;;1.63;;
72586;SDS011;60621;49.576;11.024;2022-10-16T06:27:35;6.15;;;1.83;;
72586;SDS011;60621;49.576;11.024;2022-10-16T06:28:37;3.70;;;1.70;;
72586;SDS011;60621;49.576;11.024;2022-10-16T06:29:39;5.45;;;1.60;;
72586;SDS011;60621;49.576;11.024;2022-10-16T06:30:41;4.18;;;1.70;;
72586;SDS011;60621;49.576;11.024;2022-10-16T06:31:44;4.35;;;1.80;;
72586;SDS011;60621;49.576;11.024;2022-10-16T06:32:46;4.80;;;1.52;;
72586;SDS011;60621;49.576;11.024;2022-10-16T06:33:50;4.95;;;1.70;;
72586;SDS011;60621;49.576;11.024;2022-10-16T06:34:52;4.35;;;1.80;;
72586;SDS011;60621;49.576;11.024;2022-10-16T06:35:54;4.95;;;1.65;;
72586;SDS011;60621;49.576;11.024;2022-10-16T06:37:01;4.97;;;1.60;;
72586;SDS011;60621;49.576;11.024;2022-10-16T06:38:03;5.63;;;1.65;;
72586;SDS011;60621;49.576;11.024;2022-10-16T06:39:04;3.75;;;1.70;;
72586;SDS011;60621;49.576;11.024;2022-10-16T06:40:07;4.15;;;1.83;;
72586;SDS011;60621;49.576;11.024;2022-10-16T06:41:11;4.13;;;1.83;;